createdAt,value
2023-05-11T00:00:11.410Z,4.53
2023-05-11T00:02:40.266Z,4.50
2023-05-11T00:05:09.643Z,4.40
2023-05-11T00:07:38.204Z,4.50
2023-05-11T00:10:07.982Z,4.15
2023-05-11T00:12:38.079Z,4.28
2023-05-11T00:15:08.135Z,4.18
2023-05-11T00:17:36.758Z,4.10
2023-05-11T00:20:06.335Z,4.28
2023-05-11T00:22:35.100Z,4.50
2023-05-11T00:25:04.655Z,4.40
2023-05-11T00:27:33.498Z,4.38
2023-05-11T00:30:03.361Z,4.53
2023-05-11T00:32:31.844Z,4.82
2023-05-11T00:35:00.515Z,5.68
2023-05-11T00:37:29.074Z,5.45
2023-05-11T00:39:57.555Z,6.18
2023-05-11T00:42:26.266Z,6.13
2023-05-11T00:44:54.928Z,6.40
2023-05-11T00:47:24.931Z,5.15
2023-05-11T00:49:54.783Z,6.45
2023-05-11T00:52:26.877Z,5.25
2023-05-11T00:54:55.639Z,5.65
2023-05-11T00:57:24.214Z,6.13
2023-05-11T00:59:52.772Z,6.38
2023-05-11T01:02:21.500Z,5.55
2023-05-11T01:04:52.770Z,5.70
2023-05-11T01:07:27.049Z,5.97
2023-05-11T01:10:04.901Z,5.95
2023-05-11T01:12:44.360Z,5.53
2023-05-11T01:15:16.151Z,5.55
2023-05-11T01:17:50.448Z,5.80
2023-05-11T01:20:26.242Z,6.03
2023-05-11T01:23:16.939Z,5.82
2023-05-11T01:26:07.295Z,7.78
2023-05-11T01:29:03.664Z,8.23
2023-05-11T01:31:35.595Z,6.70
2023-05-11T01:34:10.922Z,6.53
2023-05-11T01:36:45.954Z,6.80
2023-05-11T01:39:17.742Z,6.28
2023-05-11T01:41:52.594Z,7.10
2023-05-11T01:44:25.791Z,6.72
2023-05-11T01:46:57.380Z,7.72
2023-05-11T01:49:25.958Z,8.05
2023-05-11T01:51:56.143Z,9.65
2023-05-11T01:54:26.861Z,9.95
2023-05-11T01:56:57.512Z,8.82
2023-05-11T01:59:27.309Z,8.70
2023-05-11T02:01:59.002Z,8.20
2023-05-11T02:04:30.238Z,9.00
2023-05-11T02:07:01.164Z,8.05
2023-05-11T02:09:32.575Z,7.28
2023-05-11T02:12:02.956Z,7.05
2023-05-11T02:14:36.662Z,7.25
2023-05-11T02:17:07.810Z,5.78
2023-05-11T02:19:38.660Z,6.90
2023-05-11T02:22:08.149Z,6.70
2023-05-11T02:24:37.823Z,5.88
2023-05-11T02:27:06.558Z,5.57
2023-05-11T02:29:35.190Z,6.55
2023-05-11T02:32:09.282Z,6.00
2023-05-11T02:34:44.019Z,4.75
2023-05-11T02:37:16.313Z,4.95
2023-05-11T02:39:47.636Z,5.35
2023-05-11T02:42:21.875Z,5.28
2023-05-11T02:44:57.444Z,4.77
2023-05-11T02:47:32.186Z,4.85
2023-05-11T02:50:04.277Z,4.90
2023-05-11T02:52:37.341Z,6.47
2023-05-11T02:55:07.704Z,5.07
2023-05-11T02:57:36.880Z,4.55
2023-05-11T03:00:11.349Z,4.65
2023-05-11T03:02:41.436Z,3.90
2023-05-11T03:05:10.625Z,4.40
2023-05-11T03:07:39.492Z,4.72
2023-05-11T03:10:09.708Z,3.85
2023-05-11T03:12:41.578Z,4.93
2023-05-11T03:15:12.819Z,4.63
2023-05-11T03:17:45.391Z,4.53
2023-05-11T03:20:17.711Z,4.07
2023-05-11T03:22:48.162Z,3.75
2023-05-11T03:25:18.308Z,4.30
2023-05-11T03:27:48.452Z,4.00
2023-05-11T03:30:19.672Z,4.85
2023-05-11T03:32:53.446Z,3.47
2023-05-11T03:35:26.382Z,4.43
2023-05-11T03:37:57.951Z,4.30
2023-05-11T03:40:30.083Z,4.38
2023-05-11T03:43:00.240Z,5.25
2023-05-11T03:45:31.468Z,4.95
2023-05-11T03:48:02.694Z,7.45
2023-05-11T03:50:34.104Z,5.38
2023-05-11T03:53:03.321Z,4.85
2023-05-11T03:55:31.865Z,4.93
2023-05-11T03:58:02.353Z,5.15
2023-05-11T04:00:32.506Z,4.72
2023-05-11T04:03:06.499Z,4.93
2023-05-11T04:05:35.031Z,5.20
2023-05-11T04:08:06.582Z,6.43
2023-05-11T04:10:35.355Z,5.68
2023-05-11T04:13:03.950Z,5.30
2023-05-11T04:15:32.444Z,6.38
2023-05-11T04:18:00.979Z,5.57
2023-05-11T04:20:30.925Z,5.65
2023-05-11T04:22:59.435Z,6.35
2023-05-11T04:25:28.688Z,5.53
2023-05-11T04:27:57.209Z,5.47
2023-05-11T04:30:27.309Z,5.78
2023-05-11T04:32:55.970Z,6.30
2023-05-11T04:35:24.813Z,5.90
2023-05-11T04:37:55.559Z,6.05
2023-05-11T04:40:24.052Z,5.72
2023-05-11T04:42:52.783Z,6.00
2023-05-11T04:45:21.756Z,5.88
2023-05-11T04:47:50.506Z,5.55
2023-05-11T04:50:19.541Z,5.60
2023-05-11T04:52:48.558Z,5.75
2023-05-11T04:55:21.987Z,5.60
2023-05-11T04:57:50.546Z,5.45
2023-05-11T05:00:20.567Z,6.20
2023-05-11T05:02:50.782Z,6.68
2023-05-11T05:05:19.508Z,6.03
2023-05-11T05:07:47.964Z,6.40
2023-05-11T05:10:18.093Z,6.28
2023-05-11T05:12:47.381Z,7.97
2023-05-11T05:15:16.524Z,8.20
2023-05-11T05:17:45.157Z,7.95
2023-05-11T05:20:14.340Z,8.15
2023-05-11T05:22:42.851Z,7.35
2023-05-11T05:25:12.143Z,7.50
2023-05-11T05:27:42.316Z,6.80
2023-05-11T05:30:17.332Z,7.65
2023-05-11T05:32:46.407Z,8.35
2023-05-11T05:35:15.192Z,9.57
2023-05-11T05:37:45.017Z,7.35
2023-05-11T05:40:13.917Z,8.45
2023-05-11T05:42:49.229Z,9.23
2023-05-11T05:47:52.008Z,7.18
2023-05-11T05:50:21.647Z,7.68
2023-05-11T05:52:50.323Z,7.25
2023-05-11T05:55:19.107Z,9.48
2023-05-11T05:57:51.566Z,9.23
2023-05-11T06:00:20.751Z,8.05
2023-05-11T06:02:57.101Z,8.50
2023-05-11T06:05:28.250Z,11.20
2023-05-11T06:08:09.217Z,9.25
2023-05-11T06:10:39.291Z,8.68
2023-05-11T06:13:10.715Z,8.18
2023-05-11T06:15:43.356Z,7.53
2023-05-11T06:18:20.557Z,7.97
2023-05-11T06:20:49.308Z,7.32
2023-05-11T06:23:19.487Z,7.20
2023-05-11T06:25:48.904Z,7.00
2023-05-11T06:28:18.976Z,6.90
2023-05-11T06:30:47.906Z,9.68
2023-05-11T06:33:16.651Z,10.38
2023-05-11T06:35:45.181Z,8.70
2023-05-11T06:38:15.804Z,10.93
2023-05-11T06:40:44.688Z,11.40
2023-05-11T06:43:13.291Z,10.55
2023-05-11T06:45:48.606Z,8.77
2023-05-11T06:48:17.687Z,9.05
2023-05-11T06:50:46.428Z,7.95
2023-05-11T06:53:17.125Z,8.77
2023-05-11T06:55:45.972Z,7.63
2023-05-11T06:58:14.558Z,10.20
2023-05-11T07:00:43.258Z,9.27
2023-05-11T07:05:42.063Z,12.27
2023-05-11T07:08:10.572Z,9.90
2023-05-11T07:10:39.185Z,11.65
2023-05-11T07:13:07.643Z,10.23
2023-05-11T07:15:36.127Z,9.02
2023-05-11T07:18:04.755Z,10.77
2023-05-11T07:20:36.547Z,11.32
2023-05-11T07:23:04.982Z,9.20
2023-05-11T07:25:33.463Z,11.35
2023-05-11T07:28:01.993Z,11.20
2023-05-11T07:30:30.665Z,10.68
2023-05-11T07:33:00.457Z,9.90
2023-05-11T07:35:28.889Z,9.93
2023-05-11T07:37:58.612Z,8.80
2023-05-11T07:40:27.231Z,8.90
2023-05-11T07:42:55.991Z,8.90
2023-05-11T07:45:24.764Z,10.55
2023-05-11T07:47:53.457Z,9.80
2023-05-11T07:50:24.422Z,10.18
2023-05-11T07:52:53.432Z,9.10
2023-05-11T07:55:25.037Z,7.85
2023-05-11T07:57:55.069Z,9.77
2023-05-11T08:00:23.777Z,9.68
2023-05-11T08:02:52.844Z,9.00
2023-05-11T08:05:22.158Z,9.05
2023-05-11T08:07:50.722Z,7.97
2023-05-11T08:10:19.660Z,8.07
2023-05-11T08:12:49.584Z,7.22
2023-05-11T08:15:18.203Z,8.18
2023-05-11T08:17:47.437Z,7.80
2023-05-11T08:20:15.923Z,7.57
2023-05-11T08:22:45.934Z,11.30
2023-05-11T08:25:14.822Z,8.45
2023-05-11T08:27:43.290Z,8.57
2023-05-11T08:30:14.039Z,10.32
2023-05-11T08:35:14.970Z,7.57
2023-05-11T08:37:44.452Z,9.88
2023-05-11T08:40:14.912Z,8.68
2023-05-11T08:42:47.832Z,8.20
2023-05-11T08:45:19.918Z,9.43
2023-05-11T08:47:49.545Z,8.38
2023-05-11T08:50:18.881Z,9.38
2023-05-11T08:52:47.622Z,9.15
2023-05-11T08:55:16.564Z,7.97
2023-05-11T08:57:46.700Z,7.57
2023-05-11T09:00:17.915Z,8.40
2023-05-11T09:02:47.132Z,8.77
2023-05-11T09:05:16.166Z,8.13
2023-05-11T09:07:47.816Z,8.30
2023-05-11T09:10:17.030Z,8.27
2023-05-11T09:12:45.568Z,8.80
2023-05-11T09:15:14.275Z,7.60
2023-05-11T09:17:44.420Z,8.20
2023-05-11T09:20:13.600Z,11.60
2023-05-11T09:22:43.958Z,12.18
2023-05-11T09:25:13.861Z,12.20
2023-05-11T09:27:43.204Z,11.88
2023-05-11T09:30:13.718Z,10.48
2023-05-11T09:32:54.010Z,10.32
2023-05-11T09:35:24.386Z,11.18
2023-05-11T09:38:04.730Z,10.88
2023-05-11T09:40:35.263Z,10.30
2023-05-11T09:43:04.910Z,11.10
2023-05-11T09:45:37.881Z,9.43
2023-05-11T09:48:08.789Z,10.07
2023-05-11T09:50:37.479Z,10.13
2023-05-11T09:53:08.807Z,9.75
2023-05-11T09:55:37.533Z,11.52
2023-05-11T09:58:06.300Z,12.23
2023-05-11T10:00:34.759Z,11.07
2023-05-11T10:03:05.870Z,12.10
2023-05-11T10:05:37.729Z,12.75
2023-05-11T10:08:07.334Z,12.30
2023-05-11T10:10:36.025Z,10.95
2023-05-11T10:13:04.855Z,10.07
2023-05-11T10:15:36.619Z,9.65
2023-05-11T10:18:07.156Z,9.43
2023-05-11T10:20:37.228Z,8.82
2023-05-11T10:23:07.157Z,8.40
2023-05-11T10:25:36.072Z,8.55
2023-05-11T10:28:04.733Z,10.05
2023-05-11T10:30:34.466Z,8.70
2023-05-11T10:33:03.103Z,10.27
2023-05-11T10:35:32.034Z,9.27
2023-05-11T10:38:02.105Z,8.18
2023-05-11T10:40:31.349Z,8.63
2023-05-11T10:43:22.853Z,9.95
2023-05-11T10:45:58.763Z,8.77
2023-05-11T10:49:10.088Z,8.07
2023-05-11T10:52:11.636Z,6.75
2023-05-11T10:54:53.825Z,7.70
2023-05-11T10:57:37.357Z,7.57
2023-05-11T11:00:52.079Z,6.63
2023-05-11T11:03:21.045Z,6.97
2023-05-11T11:05:49.685Z,6.35
2023-05-11T11:08:18.229Z,7.60
2023-05-11T11:10:50.083Z,5.80
2023-05-11T11:13:20.072Z,7.70
2023-05-11T11:16:13.810Z,7.68
2023-05-11T11:18:44.168Z,7.30
2023-05-11T11:21:18.028Z,6.97
2023-05-11T11:23:50.243Z,6.22
2023-05-11T11:26:50.569Z,6.43
2023-05-11T11:29:19.270Z,5.72
2023-05-11T11:31:47.821Z,5.20
2023-05-11T11:34:38.461Z,5.30
2023-05-11T11:37:10.161Z,6.55
2023-05-11T11:39:50.992Z,7.35
2023-05-11T11:42:41.651Z,8.40
2023-05-11T11:45:33.672Z,9.98
2023-05-11T11:48:16.838Z,7.93
2023-05-11T11:50:48.339Z,8.93
2023-05-11T11:54:08.960Z,8.40
2023-05-11T11:56:41.627Z,9.25
2023-05-11T11:59:13.944Z,9.05
2023-05-11T12:01:44.343Z,9.15
2023-05-11T12:04:46.018Z,9.45
2023-05-11T12:07:16.246Z,9.32
2023-05-11T12:09:49.941Z,9.70
2023-05-11T12:12:19.933Z,8.10
2023-05-11T12:14:52.606Z,8.25
2023-05-11T12:17:29.598Z,7.82
2023-05-11T12:20:13.417Z,7.50
2023-05-11T12:22:42.132Z,7.18
2023-05-11T12:25:15.829Z,9.40
2023-05-11T12:27:49.315Z,8.63
2023-05-11T12:30:26.779Z,8.93
2023-05-11T12:32:57.663Z,8.75
2023-05-11T12:35:28.520Z,9.15
2023-05-11T12:37:58.123Z,9.15
2023-05-11T12:40:29.739Z,8.50
2023-05-11T12:42:59.676Z,8.75
2023-05-11T12:45:30.308Z,10.02
2023-05-11T12:47:59.636Z,8.32
2023-05-11T12:50:31.022Z,8.18
2023-05-11T12:53:14.032Z,8.05
2023-05-11T12:55:42.786Z,8.02
2023-05-11T12:58:13.685Z,7.25
2023-05-11T13:00:54.464Z,7.55
2023-05-11T13:03:23.888Z,7.05
2023-05-11T13:05:54.269Z,8.43
2023-05-11T13:08:22.801Z,8.70
2023-05-11T13:10:51.299Z,7.82
2023-05-11T13:13:30.648Z,6.95
2023-05-11T13:16:00.735Z,7.85
2023-05-11T13:18:29.340Z,8.88
2023-05-11T13:21:07.850Z,8.40
2023-05-11T13:23:36.955Z,8.85
2023-05-11T13:26:05.641Z,9.20
2023-05-11T13:28:35.334Z,9.93
2023-05-11T13:31:05.625Z,8.85
2023-05-11T13:33:34.671Z,8.23
2023-05-11T13:36:03.342Z,9.73
2023-05-11T13:38:31.823Z,10.07
2023-05-11T13:41:00.342Z,9.70
2023-05-11T13:43:29.040Z,8.13
2023-05-11T13:45:57.577Z,8.85
2023-05-11T13:48:27.479Z,10.23
2023-05-11T13:50:56.039Z,10.43
2023-05-11T13:53:24.490Z,9.43
2023-05-11T13:55:53.286Z,10.52
2023-05-11T13:58:21.769Z,10.15
2023-05-11T14:01:06.533Z,10.23
2023-05-11T14:03:37.964Z,9.68
2023-05-11T14:06:07.590Z,10.30
2023-05-11T14:08:36.710Z,9.52
2023-05-11T14:11:05.619Z,10.77
2023-05-11T14:13:34.661Z,9.35
2023-05-11T14:16:03.247Z,9.98
2023-05-11T14:18:32.775Z,9.32
2023-05-11T14:21:03.445Z,8.90
2023-05-11T14:23:32.843Z,8.68
2023-05-11T14:26:02.523Z,8.32
2023-05-11T14:28:31.434Z,7.88
2023-05-11T14:31:00.214Z,8.52
2023-05-11T14:33:28.879Z,8.35
2023-05-11T14:35:57.458Z,8.30
2023-05-11T14:38:29.344Z,7.80
2023-05-11T14:40:57.847Z,8.05
2023-05-11T14:43:26.674Z,9.25
2023-05-11T14:45:55.267Z,8.20
2023-05-11T14:48:23.992Z,7.78
2023-05-11T14:50:52.476Z,8.57
2023-05-11T14:53:21.047Z,8.30
2023-05-11T14:55:50.908Z,9.18
2023-05-11T14:58:19.381Z,10.05
2023-05-11T15:00:47.871Z,10.90
2023-05-11T15:03:16.382Z,10.63
2023-05-11T15:05:46.692Z,9.15
2023-05-11T15:08:28.492Z,9.15
2023-05-11T15:10:59.930Z,8.45
2023-05-11T15:13:28.371Z,9.60
2023-05-11T15:15:57.977Z,10.57
2023-05-11T15:18:26.490Z,10.15
2023-05-11T15:20:55.081Z,9.13
2023-05-11T15:23:23.695Z,9.50
2023-05-11T15:25:52.200Z,9.63
2023-05-11T15:28:22.072Z,9.02
2023-05-11T15:30:53.696Z,8.07
2023-05-11T15:33:22.220Z,8.50
2023-05-11T15:35:53.223Z,8.32
2023-05-11T15:38:21.799Z,8.95
2023-05-11T15:40:50.649Z,7.88
2023-05-11T15:43:19.188Z,7.13
2023-05-11T15:45:49.049Z,7.70
2023-05-11T15:48:17.595Z,6.20
2023-05-11T15:50:46.294Z,5.35
2023-05-11T15:53:14.955Z,4.68
2023-05-11T15:55:45.789Z,3.90
2023-05-11T15:58:14.280Z,4.40
2023-05-11T16:00:42.895Z,3.97
2023-05-11T16:03:12.867Z,3.38
2023-05-11T16:05:41.431Z,3.50
2023-05-11T16:08:12.398Z,3.63
2023-05-11T16:10:41.021Z,3.47
2023-05-11T16:13:10.005Z,3.22
2023-05-11T16:15:38.522Z,3.30
2023-05-11T16:18:07.166Z,3.20
2023-05-11T16:20:37.131Z,3.25
2023-05-11T16:23:05.653Z,3.25
2023-05-11T16:25:34.161Z,2.67
2023-05-11T16:28:03.260Z,2.72
2023-05-11T16:30:32.475Z,2.80
2023-05-11T16:33:01.295Z,2.80
2023-05-11T16:35:30.633Z,2.80
2023-05-11T16:38:02.484Z,2.63
2023-05-11T16:40:30.949Z,2.85
2023-05-11T16:42:59.247Z,2.60
2023-05-11T16:45:27.743Z,2.70
2023-05-11T16:47:56.858Z,2.75
2023-05-11T16:50:25.338Z,2.55
2023-05-11T16:52:53.887Z,2.88
2023-05-11T16:55:23.774Z,2.95
2023-05-11T16:57:52.965Z,2.67
2023-05-11T17:00:22.251Z,2.50
2023-05-11T17:02:51.173Z,2.70
2023-05-11T17:05:21.575Z,2.60
2023-05-11T17:07:50.174Z,2.53
2023-05-11T17:10:18.893Z,2.58
2023-05-11T17:12:49.007Z,2.47
2023-05-11T17:15:17.623Z,2.47
2023-05-11T17:17:46.168Z,2.58
2023-05-11T17:20:15.813Z,2.47
2023-05-11T17:22:44.349Z,2.63
2023-05-11T17:25:13.026Z,2.55
2023-05-11T17:27:44.096Z,2.47
2023-05-11T17:30:14.670Z,2.42
2023-05-11T17:32:43.390Z,2.58
2023-05-11T17:35:12.425Z,2.22
2023-05-11T17:37:40.892Z,2.75
2023-05-11T17:40:10.573Z,2.28
2023-05-11T17:42:39.050Z,2.67
2023-05-11T17:45:09.505Z,2.38
2023-05-11T17:47:39.382Z,2.53
2023-05-11T17:50:09.638Z,2.55
2023-05-11T17:52:38.266Z,2.80
2023-05-11T17:55:07.698Z,2.38
2023-05-11T17:57:36.345Z,2.50
2023-05-11T18:00:06.215Z,3.13
2023-05-11T18:02:34.829Z,2.50
2023-05-11T18:05:05.564Z,2.83
2023-05-11T18:07:34.285Z,3.40
2023-05-11T18:10:02.817Z,3.08
2023-05-11T18:12:32.499Z,2.75
2023-05-11T18:15:01.547Z,2.90
2023-05-11T18:17:30.091Z,2.90
2023-05-11T18:19:58.561Z,3.10
2023-05-11T18:22:31.896Z,2.97
2023-05-11T18:25:03.442Z,2.90
2023-05-11T18:27:32.072Z,2.88
2023-05-11T18:30:01.948Z,2.47
2023-05-11T18:32:30.501Z,3.03
2023-05-11T18:34:59.072Z,3.17
2023-05-11T18:37:28.983Z,2.97
2023-05-11T18:39:57.589Z,2.97
2023-05-11T18:42:26.646Z,2.60
2023-05-11T18:44:55.688Z,3.08
2023-05-11T18:47:26.162Z,2.97
2023-05-11T18:49:55.408Z,3.45
2023-05-11T18:52:24.101Z,3.10
2023-05-11T18:54:56.625Z,2.95
2023-05-11T18:57:25.563Z,3.42
2023-05-11T18:59:54.280Z,3.42
2023-05-11T19:02:23.689Z,3.20
2023-05-11T19:04:52.590Z,3.67
2023-05-11T19:07:24.653Z,3.45
2023-05-11T19:09:54.687Z,3.85
2023-05-11T19:12:23.765Z,4.10
2023-05-11T19:14:55.409Z,4.80
2023-05-11T19:17:24.634Z,4.55
2023-05-11T19:19:53.248Z,4.30
2023-05-11T19:22:22.262Z,4.28
2023-05-11T19:24:52.426Z,4.80
2023-05-11T19:27:22.661Z,4.40
2023-05-11T19:29:51.535Z,4.60
2023-05-11T19:32:20.343Z,4.43
2023-05-11T19:34:49.033Z,4.35
2023-05-11T19:37:20.870Z,3.92
2023-05-11T19:39:49.949Z,3.55
2023-05-11T19:42:25.878Z,3.20
2023-05-11T19:45:02.340Z,3.00
2023-05-11T19:47:31.359Z,3.30
2023-05-11T19:50:00.308Z,3.05
2023-05-11T19:52:29.416Z,3.33
2023-05-11T19:54:57.952Z,3.47
2023-05-11T19:57:30.323Z,3.70
2023-05-11T20:00:00.490Z,3.78
2023-05-11T20:02:30.570Z,4.13
2023-05-11T20:04:59.632Z,4.10
2023-05-11T20:07:28.577Z,4.07
2023-05-11T20:09:57.775Z,4.00
2023-05-11T20:12:26.650Z,3.97
2023-05-11T20:14:58.641Z,4.30
2023-05-11T20:17:27.328Z,4.03
2023-05-11T20:19:57.750Z,4.10
2023-05-11T20:22:27.044Z,4.20
2023-05-11T20:24:58.486Z,4.07
2023-05-11T20:27:30.033Z,4.03
2023-05-11T20:29:59.892Z,4.32
2023-05-11T20:32:28.910Z,4.38
2023-05-11T20:35:02.725Z,4.35
2023-05-11T20:37:32.797Z,4.10
2023-05-11T20:40:02.358Z,4.18
2023-05-11T20:42:31.953Z,4.18
2023-05-11T20:45:07.244Z,4.25
2023-05-11T20:47:37.103Z,4.03
2023-05-11T20:50:15.444Z,4.05
2023-05-11T20:52:44.048Z,4.30
2023-05-11T20:55:12.704Z,4.28
2023-05-11T20:57:41.443Z,3.95
2023-05-11T21:00:11.388Z,3.88
2023-05-11T21:02:40.229Z,4.05
2023-05-11T21:05:10.579Z,3.65
2023-05-11T21:07:39.234Z,3.63
2023-05-11T21:10:08.605Z,3.95
2023-05-11T21:12:37.219Z,4.20
2023-05-11T21:15:07.037Z,4.15
2023-05-11T21:17:38.233Z,3.75
2023-05-11T21:20:08.010Z,3.95
2023-05-11T21:22:40.680Z,4.80
2023-05-11T21:25:09.632Z,4.50
2023-05-11T21:27:38.291Z,4.90
2023-05-11T21:30:09.349Z,4.63
2023-05-11T21:32:38.006Z,4.70
2023-05-11T21:35:07.322Z,3.47
2023-05-11T21:37:37.417Z,3.70
2023-05-11T21:40:07.516Z,3.30
2023-05-11T21:42:36.254Z,3.30
2023-05-11T21:45:05.530Z,3.10
2023-05-11T21:47:34.190Z,3.08
2023-05-11T21:50:03.232Z,3.35
2023-05-11T21:52:31.860Z,3.20
2023-05-11T21:55:01.944Z,4.20
2023-05-11T21:57:31.063Z,3.83
2023-05-11T21:59:59.656Z,4.10
2023-05-11T22:02:28.365Z,3.97
2023-05-11T22:04:56.991Z,4.00
2023-05-11T22:07:25.683Z,3.67
2023-05-11T22:09:54.269Z,3.85
2023-05-11T22:12:24.467Z,3.90
2023-05-11T22:14:53.017Z,4.20
2023-05-11T22:17:21.694Z,4.53
2023-05-11T22:19:50.343Z,4.35
2023-05-11T22:22:19.005Z,4.28
2023-05-11T22:24:47.636Z,4.30
2023-05-11T22:27:16.290Z,3.90
2023-05-11T22:29:46.473Z,4.07
2023-05-11T22:32:15.087Z,4.80
2023-05-11T22:34:43.563Z,4.68
2023-05-11T22:37:12.153Z,4.22
2023-05-11T22:39:40.708Z,4.30
2023-05-11T22:42:09.390Z,4.47
2023-05-11T22:44:37.855Z,5.10
2023-05-11T22:47:08.175Z,4.40
2023-05-11T22:49:36.824Z,5.40
2023-05-11T22:52:05.981Z,5.45
2023-05-11T22:54:36.090Z,6.00
2023-05-11T22:57:04.941Z,5.45
2023-05-11T22:59:34.747Z,5.47
2023-05-11T23:02:04.669Z,5.25
2023-05-11T23:04:34.738Z,6.53
2023-05-11T23:07:04.280Z,7.25
2023-05-11T23:09:33.113Z,7.70
2023-05-11T23:12:01.719Z,7.90
2023-05-11T23:14:30.459Z,7.30
2023-05-11T23:16:58.970Z,7.05
2023-05-11T23:19:27.458Z,6.15
2023-05-11T23:21:57.745Z,6.18
2023-05-11T23:24:26.554Z,6.00
2023-05-11T23:26:55.043Z,6.30
2023-05-11T23:29:24.449Z,5.80
2023-05-11T23:31:53.261Z,5.70
2023-05-11T23:34:21.940Z,5.95
2023-05-11T23:36:50.548Z,6.03
2023-05-11T23:39:20.518Z,5.72
2023-05-11T23:41:49.162Z,6.65
2023-05-11T23:44:22.632Z,8.55
2023-05-11T23:46:51.285Z,7.18
2023-05-11T23:49:19.861Z,7.13
2023-05-11T23:51:48.509Z,8.00
2023-05-11T23:54:17.034Z,8.23
2023-05-11T23:56:47.059Z,8.02
2023-05-11T23:59:15.662Z,7.55
